Private Wetterstation Nrnberg - Katzwang
Wetterdaten: September 2012
Datum Temp. A. Feuchte A. Luftdruck Regen Wind Richtung Taupunkt Windchill Windben
01.09.2012 15,7 C 79 % 1021 hPa 0,0 l/m 3,4 km/h N-NO 12,0 C 15,3 C 4,4 km/h
02.09.2012 17,5 C 75 % 1021 hPa 0,0 l/m 3,6 km/h N-NO 13,0 C 16,9 C 4,6 km/h
03.09.2012 19,4 C 71 % 1019 hPa 0,5 l/m 1,7 km/h N-NO 13,8 C 19,3 C 2,7 km/h
04.09.2012 18,9 C 71 % 1018 hPa 0,0 l/m 6,5 km/h N-NO 13,2 C 18,4 C 7,5 km/h
05.09.2012 18,7 C 71 % 1017 hPa 0,0 l/m 6,5 km/h N-NO 13,2 C 18,1 C 7,5 km/h
06.09.2012 16,0 C 64 % 1023 hPa 0,0 l/m 1,9 km/h N-NO 8,9 C 15,9 C 2,9 km/h
07.09.2012 16,5 C 59 % 1021 hPa 0,0 l/m 0,0 km/h N-NO 7,7 C 16,5 C 1,0 km/h
08.09.2012 19,4 C 61 % 1019 hPa 0,0 l/m 1,0 km/h N-NO 11,1 C 19,4 C 2,0 km/h
09.09.2012 20,9 C 59 % 1015 hPa 0,0 l/m 4,6 km/h O-NO 11,8 C 20,8 C 5,6 km/h
10.09.2012 21,1 C 63 % 1014 hPa 0,0 l/m 2,1 km/h N-NO 13,4 C 21,1 C 3,1 km/h
11.09.2012 20,3 C 70 % 1012 hPa 13,5 l/m 8,4 km/h NO 13,8 C 18,7 C 9,4 km/h
12.09.2012 12,5 C 81 % 1011 hPa 6,7 l/m 0,5 km/h N 9,2 C 12,5 C 1,5 km/h
13.09.2012 11,4 C 72 % 1015 hPa 0,5 l/m 2,7 km/h N 6,4 C 10,9 C 3,7 km/h
14.09.2012 13,6 C 64 % 1012 hPa 0,0 l/m 0,5 km/h N-NO 6,3 C 13,6 C 1,5 km/h
15.09.2012 13,5 C 73 % 1016 hPa 0,0 l/m 0,0 km/h N 8,7 C 13,5 C 1,0 km/h
16.09.2012 14,3 C 66 % 1014 hPa 0,0 l/m 0,9 km/h N-NO 7,6 C 14,3 C 1,9 km/h
17.09.2012 15,9 C 72 % 1012 hPa 0,0 l/m 0,3 km/h N-NO 10,6 C 15,9 C 1,4 km/h
18.09.2012 18,4 C 67 % 1009 hPa 3,6 l/m 0,7 km/h N-NO 11,6 C 18,4 C 1,7 km/h
19.09.2012 12,2 C 71 % 1016 hPa 2,6 l/m 0,0 km/h N 6,7 C 12,2 C 1,0 km/h
20.09.2012 10,2 C 68 % 1021 hPa 0,0 l/m 0,0 km/h N-NO 4,3 C 10,2 C 1,0 km/h
21.09.2012 13,3 C 65 % 1014 hPa 0,0 l/m 4,5 km/h O 6,4 C 13,3 C 5,5 km/h
22.09.2012 12,2 C 74 % 1014 hPa 4,7 l/m 0,3 km/h N 7,6 C 12,2 C 1,4 km/h
23.09.2012 12,6 C 74 % 1011 hPa 0,0 l/m 0,0 km/h O 8,1 C 12,6 C 1,0 km/h
24.09.2012 14,8 C 79 % 1001 hPa 2,6 l/m 8,1 km/h NO 11,0 C 13,7 C 9,6 km/h
25.09.2012 15,1 C 73 % 1002 hPa 0,0 l/m 4,1 km/h N-NO 10,0 C 14,4 C 5,1 km/h
26.09.2012 15,8 C 73 % 1001 hPa 0,0 l/m 0,9 km/h N 10,7 C 15,8 C 1,9 km/h
27.09.2012 13,4 C 76 % 1010 hPa 10,4 l/m 2,2 km/h N 9,1 C 13,1 C 3,2 km/h
28.09.2012 13,2 C 72 % 1016 hPa 0,0 l/m 2,2 km/h N 7,9 C 12,9 C 3,2 km/h
29.09.2012 12,0 C 77 % 1015 hPa 0,0 l/m 0,0 km/h N 8,0 C 12,0 C 1,0 km/h
30.09.2012 12,1 C 73 % 1018 hPa 0,0 l/m 1,5 km/h N-NO 7,2 C 12,1 C 2,5 km/h
Min-Datum 20.09.12 07.09.12 24.09.12 9 Tage 01.09.12 - 20.09.12 14.09.12 01.09.12
Min-Zeit 07:20 17:50 15:20 - 00:00 - 07:20 07:20 00:00
Minimum 3,5 C 31 % 999 hPa - 0,0 km/h - 0,9 C 2,7 C 1,0 km/h
Max-Datum 11.09.12 01.09.12 06.09.12 11.09.12 22.09.12 - 10.09.12 11.09.12 11.09.12
Max-Zeit 15:30 04:50 10:20 18:20 15:10 - 12:40 15:30 18:10
Maximum 30,7 C 85 % 1024 hPa 13,5 l/m 41,7 km/h
N
- 16,8 C 30,7 C 61,9 km/h
NO
Durchschnitt 15,4 C 70 % 1014 hPa #45,1 l/m 2,3 km/h N-NO 9,7 C 15,1 C 3,3 km/h

Durchschnitt Minimum Temp.9,6 C
Durchschnitt Maximum Temp.21,9 C